DAAT

Details ICAO DAAT (TMR)
Name TAMANRASSET
Region Algeria
Timezone Africa/Algiers (UTC+1.0)
Plans Departing 170
Arriving 181
Stats Elevation 4,518 ft / 1,377 m (AMSL)
Location 22.810384° 5.444403°
Runways 2
Magnetic Variation 0.645° E
Sunrise 2018-06-24 04:55:51 UTC / 2018-06-24 05:55:51 Local
Sunset 2018-06-24 18:27:49 UTC / 2018-06-24 19:27:49 Local
Advertisement - Login to hide

Runways

ID Width Length Bearing (true) Bearing (mag) Surface Threshold Offset Overrun Length
02 148 ft / 45 m 11,884 ft / 3,622 m 22.21° 21.56° Asphalt 0 ft / 0 m 0 ft / 0 m
08 148 ft / 45 m 10,169 ft / 3,099 m 81.74° 81.09° Asphalt 0 ft / 0 m 0 ft / 0 m
20 148 ft / 45 m 11,884 ft / 3,622 m 202.22° 201.57° Asphalt 0 ft / 0 m 0 ft / 0 m
26 148 ft / 45 m 10,169 ft / 3,099 m 261.75° 261.10° Asphalt 0 ft / 0 m 0 ft / 0 m

Map

Weather


0- 5 10 15 20 25 30 35+ Temperature / ° C

Clouds and Precipitation
Forecast for 2018-06-24 18:00 UTC. Updated 5 hours ago

Ground ~20,000 ft ~40,000 ft Winds

METAR

DAAT 241900Z 18006KT 3000 HZ SCT046TCU BKN100 29/07 Q1022

TAF

TAF DAAT 241700Z 2418/2518 02010KT 3000 HZ FEW040 PROB40 TEMPO 2418/2422 VRB15G25KT 5000 -TSRA FEW040CB SCT046TCU BECMG 2419/2422 6000 NSW BECMG 2503/2506 14012KT TEMPO 2506/2510 15015G25KT BECMG 2511/2513 32010KT

Frequencies

Tower 118.10 MHz TWR
Tower 119.70 MHz TWR
Warning: Do not use this data for real-world aviation or navigation. No guarantee of current accuracy is given.